Time;durP1;ratioP1;P1;durP2;ratioP2;P2;SDS_P1;SDS_P2;PMS_P1;PMS_P2;Temp;Humidity;BMP_temperature;BMP_pressure;BME280_temperature;BME280_humidity;BME280_pressure;Samples;Min_cycle;Max_cycle;Signal;HPM_P1;HPM_P2
2022/06/04 00:01:44;;;;;;;2.53;1.70;;;;;;;20.79;38.20;101704.75;4979575;28;20049;-66
2022/06/04 00:04:15;;;;;;;3.13;1.92;;;;;;;20.75;38.32;101704.19;4996559;28;20077;-66
2022/06/04 00:06:43;;;;;;;2.70;1.52;;;;;;;20.73;38.05;101708.94;4982672;28;20038;-66
2022/06/04 00:09:11;;;;;;;2.33;1.60;;;;;;;20.70;38.52;101706.53;4996669;28;20114;-67
2022/06/04 00:17:15;;;;;;;2.15;1.60;;;;;;;20.62;38.54;101698.25;4996445;28;20046;-67
2022/06/04 00:19:42;;;;;;;2.35;1.40;;;;;;;20.55;38.43;101695.28;4996443;28;20126;-66
2022/06/04 00:22:08;;;;;;;5.10;2.15;;;;;;;20.49;38.71;101701.34;4995992;28;20496;-66
2022/06/04 00:24:36;;;;;;;2.60;1.50;;;;;;;20.44;38.71;101684.56;4995628;28;20109;-66
2022/06/04 00:27:02;;;;;;;4.45;2.50;;;;;;;20.39;38.78;101686.00;4996008;28;20050;-66
2022/06/04 00:29:32;;;;;;;2.25;1.63;;;;;;;20.34;38.86;101685.59;4995951;28;20415;-67
2022/06/04 00:31:59;;;;;;;2.35;1.98;;;;;;;20.29;38.52;101688.78;4995592;28;20035;-68
2022/06/04 00:34:26;;;;;;;3.40;1.98;;;;;;;20.26;38.59;101697.28;4995982;28;20130;-67
2022/06/04 00:36:53;;;;;;;4.18;2.47;;;;;;;20.23;39.18;101684.78;4995794;28;20053;-67
2022/06/04 00:39:19;;;;;;;4.22;2.08;;;;;;;20.20;39.07;101685.09;4995860;28;20034;-67
2022/06/04 00:42:17;;;;;;;3.95;2.15;;;;;;;20.13;39.21;101686.72;4989616;28;20058;-67
2022/06/04 00:45:21;;;;;;;4.75;2.00;;;;;;;20.11;38.81;101690.59;4968354;28;20085;-67
2022/06/04 00:47:49;;;;;;;4.82;1.95;;;;;;;20.06;38.87;101688.28;4995085;28;20181;-68
2022/06/04 00:50:19;;;;;;;4.18;2.00;;;;;;;20.02;39.06;101692.31;4995671;28;20489;-67
2022/06/04 00:52:49;;;;;;;2.60;1.85;;;;;;;20.00;38.90;101694.34;4995681;28;20048;-66
2022/06/04 00:55:17;;;;;;;5.53;1.90;;;;;;;19.97;39.05;101689.19;4990062;28;20380;-68
2022/06/04 00:58:08;;;;;;;5.70;1.90;;;;;;;19.90;39.06;101683.47;4987629;28;20050;-67
2022/06/04 01:00:40;;;;;;;4.70;1.90;;;;;;;19.89;39.10;101680.91;4988678;28;20047;-67
2022/06/04 01:03:21;;;;;;;2.40;1.90;;;;;;;19.86;39.40;101681.19;4995470;28;20408;-67
2022/06/04 01:05:51;;;;;;;3.15;2.08;;;;;;;19.84;39.40;101697.72;4995441;28;20054;-68
2022/06/04 01:08:23;;;;;;;3.50;2.50;;;;;;;19.80;39.23;101704.47;4995417;28;20046;-67
2022/06/04 01:11:14;;;;;;;2.10;1.90;;;;;;;19.76;39.32;101705.75;4987952;28;20061;-67
2022/06/04 01:13:44;;;;;;;3.45;2.08;;;;;;;19.72;39.60;101714.38;4978386;28;20043;-67
2022/06/04 01:16:20;;;;;;;4.25;2.95;;;;;;;19.66;39.26;101722.16;4995039;28;20488;-67
2022/06/04 01:18:58;;;;;;;4.28;2.28;;;;;;;19.63;39.60;101733.34;4994880;28;20054;-68
2022/06/04 01:21:58;;;;;;;5.85;2.08;;;;;;;19.61;39.76;101743.53;4994053;28;20042;-67
2022/06/04 01:24:49;;;;;;;3.70;2.17;;;;;;;19.62;39.58;101747.97;4955159;28;20101;-67
2022/06/04 01:27:43;;;;;;;5.20;2.30;;;;;;;19.58;40.00;101749.25;4995126;28;20050;-67
2022/06/04 01:30:21;;;;;;;3.47;1.98;;;;;;;19.60;40.09;101740.94;4994398;28;20506;-67
2022/06/04 01:32:58;;;;;;;3.08;2.17;;;;;;;19.57;39.64;101746.69;4994666;28;20050;-67
2022/06/04 01:35:31;;;;;;;2.90;2.10;;;;;;;19.54;39.90;101747.84;4981644;28;20485;-67
2022/06/04 01:38:05;;;;;;;4.63;2.17;;;;;;;19.48;40.04;101753.84;4994487;28;20500;-67
2022/06/04 01:43:30;;;;;;;3.80;2.28;;;;;;;19.42;40.30;101751.69;4993868;28;20038;-67
2022/06/04 01:46:02;;;;;;;5.20;2.42;;;;;;;19.39;39.90;101760.16;4994588;28;20043;-66
2022/06/04 01:48:33;;;;;;;3.55;2.15;;;;;;;19.37;40.23;101764.88;4994555;28;20508;-66
2022/06/04 01:51:03;;;;;;;4.18;2.50;;;;;;;19.36;40.10;101760.44;4994506;28;20052;-66
2022/06/04 01:53:35;;;;;;;3.65;2.25;;;;;;;19.34;40.50;101757.84;4993912;28;20039;-67
2022/06/04 01:56:07;;;;;;;3.85;2.63;;;;;;;19.33;40.55;101763.44;4993621;28;20038;-67
2022/06/04 01:58:51;;;;;;;5.10;2.95;;;;;;;19.28;40.78;101761.13;4994893;28;20046;-67
2022/06/04 02:01:24;;;;;;;4.05;2.55;;;;;;;19.27;40.46;101772.16;4994250;28;20042;-67
2022/06/04 02:04:09;;;;;;;4.53;2.65;;;;;;;19.24;40.78;101765.13;4993924;28;20066;-67
2022/06/04 02:06:43;;;;;;;2.50;2.30;;;;;;;19.22;40.44;101771.72;4976592;28;20038;-67
2022/06/04 02:09:16;;;;;;;4.55;2.50;;;;;;;19.21;40.42;101770.00;4994247;28;20052;-68
2022/06/04 02:11:55;;;;;;;5.82;3.00;;;;;;;19.19;40.80;101764.72;4993964;28;20053;-68
2022/06/04 02:14:21;;;;;;;5.32;3.03;;;;;;;19.18;41.01;101760.25;4993890;28;20488;-67
2022/06/04 02:16:53;;;;;;;4.78;2.63;;;;;;;19.15;41.22;101755.09;4993599;28;20058;-67
2022/06/04 02:19:20;;;;;;;5.63;2.80;;;;;;;19.13;40.96;101748.06;4993676;28;20080;-67
2022/06/04 02:21:46;;;;;;;4.38;2.83;;;;;;;19.10;41.29;101746.50;4993815;28;20046;-68
2022/06/04 02:24:13;;;;;;;4.20;3.13;;;;;;;19.09;41.07;101750.22;4993695;28;20125;-66
2022/06/04 02:26:43;;;;;;;3.47;3.00;;;;;;;19.07;41.04;101754.94;4994111;28;20056;-67
2022/06/04 02:29:10;;;;;;;3.13;2.55;;;;;;;19.03;41.09;101754.38;4993778;28;20493;-66
2022/06/04 02:31:42;;;;;;;3.85;3.35;;;;;;;19.01;41.15;101760.97;4993081;28;20393;-67
2022/06/04 02:34:40;;;;;;;4.82;2.72;;;;;;;18.98;41.78;101762.09;4993609;28;20073;-66
2022/06/04 02:37:11;;;;;;;5.57;3.30;;;;;;;19.02;41.56;101765.41;4977062;28;20046;-67
2022/06/04 02:39:41;;;;;;;5.00;3.22;;;;;;;19.01;41.70;101760.97;4993715;28;20057;-67
2022/06/04 02:42:21;;;;;;;3.92;3.03;;;;;;;18.97;41.76;101756.81;4993234;28;20044;-67
2022/06/04 02:44:55;;;;;;;5.78;3.65;;;;;;;18.93;42.00;101741.75;4993636;28;20057;-67
2022/06/04 02:47:30;;;;;;;7.93;3.20;;;;;;;18.91;41.99;101743.75;4994071;28;20065;-66
2022/06/04 02:50:05;;;;;;;5.15;3.17;;;;;;;18.90;42.08;101742.03;4993693;28;20039;-67
2022/06/04 02:52:34;;;;;;;6.40;3.72;;;;;;;18.89;41.76;101734.88;4993494;28;20039;-66
2022/06/04 02:55:08;;;;;;;4.57;3.63;;;;;;;18.89;42.03;101738.47;4993345;28;20057;-67
2022/06/04 02:57:39;;;;;;;6.57;3.80;;;;;;;18.86;42.05;101729.72;4993495;28;20129;-66
2022/06/04 03:00:09;;;;;;;5.70;3.90;;;;;;;18.83;42.41;101730.84;4993703;28;20046;-66
2022/06/04 03:02:36;;;;;;;5.05;3.90;;;;;;;18.82;42.12;101720.13;4993665;28;20121;-66
2022/06/04 03:05:11;;;;;;;4.90;3.78;;;;;;;18.78;42.60;101711.38;4993289;28;20035;-66
2022/06/04 03:07:40;;;;;;;5.07;3.70;;;;;;;18.74;42.85;101709.94;4980371;28;20053;-66
2022/06/04 03:10:13;;;;;;;7.15;4.13;;;;;;;18.69;42.50;101714.94;4980584;28;20046;-67
2022/06/04 03:12:39;;;;;;;4.97;4.20;;;;;;;18.65;42.62;101713.50;4997373;28;20488;-66
2022/06/04 03:15:09;;;;;;;4.63;3.80;;;;;;;18.62;42.74;101714.63;4997268;28;20485;-66
2022/06/04 03:17:35;;;;;;;7.13;4.03;;;;;;;18.62;43.01;101721.94;4996605;28;20399;-66
2022/06/04 03:20:02;;;;;;;12.48;4.60;;;;;;;18.62;43.17;101716.50;4997384;28;20050;-67
2022/06/04 03:22:29;;;;;;;4.85;4.32;;;;;;;18.59;43.33;101711.31;4997302;28;20042;-66
2022/06/04 03:24:55;;;;;;;7.55;5.07;;;;;;;18.58;43.41;101705.00;4997257;28;20046;-67
2022/06/04 03:27:22;;;;;;;6.32;4.65;;;;;;;18.59;43.63;101712.16;4997197;28;20054;-67
2022/06/04 03:29:48;;;;;;;5.90;4.13;;;;;;;18.58;43.58;101701.38;4997180;28;20046;-66
2022/06/04 03:32:15;;;;;;;4.85;4.18;;;;;;;18.54;43.47;101708.13;4997045;28;20037;-66
2022/06/04 03:34:41;;;;;;;5.38;4.60;;;;;;;18.48;43.34;101714.97;4996937;28;20404;-66
2022/06/04 03:37:08;;;;;;;6.25;5.13;;;;;;;18.46;43.60;101727.84;4997181;28;20058;-67
2022/06/04 03:39:34;;;;;;;10.70;5.05;;;;;;;18.46;43.64;101733.28;4997264;28;20043;-66
2022/06/04 03:42:01;;;;;;;5.80;4.30;;;;;;;18.47;43.68;101734.16;4996934;28;20049;-67
2022/06/04 03:44:28;;;;;;;6.90;4.95;;;;;;;18.47;43.96;101731.44;4996818;28;20550;-67
2022/06/04 03:46:55;;;;;;;7.47;4.80;;;;;;;18.43;44.07;101734.44;4996812;28;20121;-67
2022/06/04 03:49:22;;;;;;;5.55;5.03;;;;;;;18.38;44.08;101741.28;4996985;28;20336;-67
2022/06/04 03:51:49;;;;;;;6.47;4.78;;;;;;;18.34;43.96;101737.97;4996353;28;20044;-66
2022/06/04 03:54:16;;;;;;;6.47;4.90;;;;;;;18.34;43.92;101746.13;4996177;28;20040;-66
2022/06/04 03:56:42;;;;;;;11.23;5.30;;;;;;;18.35;44.42;101741.56;4996587;28;20066;-67
2022/06/04 03:59:09;;;;;;;7.95;5.05;;;;;;;18.34;44.56;101753.44;4996614;28;20042;-67
2022/06/04 04:01:35;;;;;;;6.30;4.88;;;;;;;18.31;44.29;101740.09;4996399;28;20046;-69
2022/06/04 04:04:02;;;;;;;7.35;4.95;;;;;;;18.30;44.46;101743.81;4997407;28;20046;-67
2022/06/04 04:06:31;;;;;;;9.23;5.63;;;;;;;18.29;44.56;101745.69;4971574;28;20054;-68
2022/06/04 04:08:58;;;;;;;8.27;5.10;;;;;;;18.27;44.55;101747.69;4996305;28;20052;-67
2022/06/04 04:11:27;;;;;;;8.32;5.13;;;;;;;18.25;44.94;101746.97;4979055;28;20038;-66
2022/06/04 04:13:54;;;;;;;7.72;5.30;;;;;;;18.27;44.90;101750.41;4978480;28;20042;-67
2022/06/04 04:16:22;;;;;;;9.15;5.05;;;;;;;18.28;45.21;101754.84;4978427;28;20042;-67
2022/06/04 04:18:49;;;;;;;7.10;4.93;;;;;;;18.29;44.98;101748.41;4995339;28;20054;-67
2022/06/04 04:21:19;;;;;;;8.07;5.20;;;;;;;18.29;45.10;101742.97;4996297;28;20053;-67
2022/06/04 04:23:46;;;;;;;6.63;5.00;;;;;;;18.28;45.28;101745.81;4995832;28;20046;-66
2022/06/04 04:26:14;;;;;;;6.93;4.90;;;;;;;18.25;45.30;101740.66;4996478;28;20383;-67
2022/06/04 04:28:41;;;;;;;6.15;4.95;;;;;;;18.25;45.52;101754.25;4996111;28;20480;-66
2022/06/04 04:31:18;;;;;;;5.72;4.90;;;;;;;18.25;45.79;101754.25;4995917;28;20045;-66
2022/06/04 04:33:45;;;;;;;7.63;5.00;;;;;;;18.25;45.36;101746.97;4978582;28;20038;-65
2022/06/04 04:36:12;;;;;;;7.72;4.93;;;;;;;18.24;45.52;101758.84;4995820;28;20043;-66
2022/06/04 04:38:39;;;;;;;9.90;5.20;;;;;;;18.25;45.65;101768.72;4995830;28;20050;-67
2022/06/04 04:41:10;;;;;;;8.23;5.95;;;;;;;18.26;45.84;101762.28;4995008;28;20476;-67
2022/06/04 04:43:38;;;;;;;6.75;4.93;;;;;;;18.25;45.89;101771.44;4982156;28;20044;-67
2022/06/04 04:46:09;;;;;;;8.15;5.40;;;;;;;18.22;45.66;101763.53;4996007;28;20042;-67
2022/06/04 04:48:36;;;;;;;6.80;5.00;;;;;;;18.21;45.97;101764.53;4995724;28;20043;-67
2022/06/04 04:51:04;;;;;;;7.05;4.88;;;;;;;18.21;46.01;101764.53;4995948;28;20130;-67
2022/06/04 04:53:30;;;;;;;8.63;5.40;;;;;;;18.20;46.36;101757.38;4994968;28;20046;-67
2022/06/04 04:55:57;;;;;;;8.73;5.38;;;;;;;18.18;46.29;101763.94;4995892;28;20141;-67
2022/06/04 04:58:24;;;;;;;7.60;5.75;;;;;;;18.18;46.09;101766.66;4995556;28;20054;-66
2022/06/04 05:00:50;;;;;;;8.40;5.35;;;;;;;18.20;46.07;101770.13;4995379;28;20050;-68
2022/06/04 05:03:17;;;;;;;8.13;5.40;;;;;;;18.20;46.31;101776.41;4995171;28;20052;-66
2022/06/04 05:05:43;;;;;;;8.15;5.43;;;;;;;18.19;46.45;101777.41;4989099;28;20069;-66
2022/06/04 05:08:10;;;;;;;9.70;5.20;;;;;;;18.19;46.60;101785.56;4995314;28;20472;-67
2022/06/04 05:10:36;;;;;;;7.18;5.53;;;;;;;18.22;46.42;101795.31;4995123;28;20042;-67
2022/06/04 05:13:03;;;;;;;7.85;5.78;;;;;;;18.23;46.73;101797.91;4994855;28;20045;-67
2022/06/04 05:15:30;;;;;;;5.60;5.00;;;;;;;18.25;46.54;101798.63;4994986;28;20047;-67
2022/06/04 05:17:56;;;;;;;8.18;5.28;;;;;;;18.27;46.56;101796.63;4994859;28;20507;-67
2022/06/04 05:20:23;;;;;;;7.78;5.47;;;;;;;18.32;46.42;101807.97;4994918;28;20050;-66
2022/06/04 05:22:50;;;;;;;8.73;5.80;;;;;;;18.34;46.72;101813.25;4995055;28;20057;-66
2022/06/04 05:25:16;;;;;;;8.35;5.63;;;;;;;18.35;46.57;101802.25;4995034;28;20053;-67
2022/06/04 05:27:43;;;;;;;8.55;5.55;;;;;;;18.40;46.41;101804.56;4995202;28;20042;-67
2022/06/04 05:30:11;;;;;;;8.13;5.90;;;;;;;18.43;46.61;101788.81;4993852;28;20046;-66
2022/06/04 05:32:37;;;;;;;9.23;6.15;;;;;;;18.46;46.81;101795.00;4994583;28;20038;-67
2022/06/04 05:35:04;;;;;;;6.85;5.70;;;;;;;18.48;46.87;101795.72;4994972;28;20129;-66
2022/06/04 05:37:31;;;;;;;11.45;6.10;;;;;;;18.48;46.63;101798.44;4994844;28;20050;-66
2022/06/04 05:40:04;;;;;;;8.73;6.28;;;;;;;18.51;47.03;101811.75;4994561;28;20041;-65
2022/06/04 05:42:31;;;;;;;9.30;6.35;;;;;;;18.54;46.60;101816.94;4994475;28;20126;-67
2022/06/04 05:44:59;;;;;;;10.40;6.13;;;;;;;18.51;46.81;101814.47;4994224;28;20034;-66
2022/06/04 05:47:27;;;;;;;8.00;5.75;;;;;;;18.50;46.98;101797.28;4994524;28;20039;-66
2022/06/04 05:49:54;;;;;;;10.57;5.88;;;;;;;18.51;47.17;101812.63;4994442;28;20070;-66
2022/06/04 05:52:21;;;;;;;12.85;6.15;;;;;;;18.51;46.70;101812.63;4994023;28;20060;-67
2022/06/04 05:54:47;;;;;;;11.48;6.40;;;;;;;18.52;47.03;101824.38;4994157;28;20050;-66
2022/06/04 05:57:14;;;;;;;8.57;5.85;;;;;;;18.56;47.28;101831.25;4991521;28;20503;-65
2022/06/04 05:59:40;;;;;;;9.02;6.13;;;;;;;18.58;46.93;101824.72;4985986;28;20043;-65
2022/06/04 06:02:10;;;;;;;6.68;5.80;;;;;;;18.63;47.17;101822.47;4988072;28;20034;-64
2022/06/04 06:04:37;;;;;;;7.68;5.65;;;;;;;18.67;46.90;101818.47;4994101;28;20050;-65
2022/06/04 06:07:04;;;;;;;8.35;5.85;;;;;;;18.72;47.28;101820.78;4994517;28;20408;-65
2022/06/04 06:09:30;;;;;;;7.43;6.00;;;;;;;18.76;47.24;101819.50;4994953;28;20121;-65
2022/06/04 06:11:57;;;;;;;8.40;6.03;;;;;;;18.78;47.15;101822.94;4994575;28;20391;-65
2022/06/04 06:14:24;;;;;;;8.93;5.90;;;;;;;18.79;47.10;101823.81;4994081;28;20046;-65
2022/06/04 06:16:52;;;;;;;8.50;6.38;;;;;;;18.81;46.84;101830.84;4994207;28;20048;-66
2022/06/04 06:19:20;;;;;;;8.02;6.07;;;;;;;18.84;46.97;101829.69;4976752;28;20050;-65
2022/06/04 06:21:48;;;;;;;10.27;6.47;;;;;;;18.87;47.12;101832.13;4994511;28;20049;-65
2022/06/04 06:24:16;;;;;;;8.75;6.25;;;;;;;18.90;47.39;101837.31;4994134;28;20056;-66
2022/06/04 06:26:52;;;;;;;10.07;6.63;;;;;;;18.93;47.08;101835.16;4993241;28;20048;-65
2022/06/04 06:29:19;;;;;;;;;;;;;;;18.94;46.96;101842.34;4994831;28;20057;-66
2022/06/04 06:31:46;;;;;;;11.68;6.50;;;;;;;19.00;46.81;101844.50;4993491;28;19922;-66
2022/06/04 06:34:13;;;;;;;7.78;6.07;;;;;;;19.00;46.99;101844.50;4993976;28;20041;-66
2022/06/04 06:36:40;;;;;;;8.38;6.32;;;;;;;19.00;46.98;101852.66;4993652;28;20044;-65
2022/06/04 06:39:06;;;;;;;8.65;6.15;;;;;;;19.02;47.08;101845.22;4976157;28;20046;-67
2022/06/04 06:41:33;;;;;;;8.25;6.15;;;;;;;19.05;46.85;101841.34;4993572;28;20380;-67
2022/06/04 06:44:00;;;;;;;13.68;6.57;;;;;;;19.11;47.40;101848.97;4992830;28;20526;-67
2022/06/04 06:46:34;;;;;;;8.35;6.25;;;;;;;19.15;47.23;101855.00;4993446;28;20046;-70
2022/06/04 06:49:08;;;;;;;12.73;6.00;;;;;;;19.22;46.93;101861.59;4976328;28;20039;-69
2022/06/04 06:51:38;;;;;;;23.58;7.50;;;;;;;19.28;46.96;101863.75;4976836;28;20369;-69
2022/06/04 06:54:05;;;;;;;11.73;6.68;;;;;;;19.30;46.70;101864.47;4993111;28;20045;-68
2022/06/04 06:56:34;;;;;;;11.50;6.85;;;;;;;19.33;46.53;101861.50;4993433;28;20038;-68
2022/06/04 06:59:03;;;;;;;19.40;7.45;;;;;;;19.40;46.71;101859.06;4993542;28;20038;-67
2022/06/04 07:01:31;;;;;;;24.35;8.15;;;;;;;19.46;46.40;101855.78;4993382;28;20039;-69
2022/06/04 07:03:59;;;;;;;10.98;6.07;;;;;;;19.52;46.45;101852.50;4975733;28;20093;-68
2022/06/04 07:06:31;;;;;;;60.88;10.15;;;;;;;19.55;46.44;101853.09;4993588;28;20038;-70
2022/06/04 07:08:59;;;;;;;24.67;7.78;;;;;;;19.59;46.35;101853.66;4993506;28;20506;-71
2022/06/04 07:11:26;;;;;;;18.50;6.93;;;;;;;19.61;46.73;101851.66;4993629;28;20051;-69
2022/06/04 07:14:35;;;;;;;22.30;7.00;;;;;;;19.59;46.35;101854.53;5062348;28;20400;-69
2022/06/04 07:17:05;;;;;;;24.70;7.47;;;;;;;19.61;46.27;101854.38;5049372;28;20037;-69
2022/06/04 07:19:32;;;;;;;16.95;6.53;;;;;;;19.66;46.52;101852.09;5050433;28;20531;-69
2022/06/04 07:21:58;;;;;;;17.35;7.15;;;;;;;19.70;46.38;101850.81;5050367;28;20498;-70
2022/06/04 07:24:25;;;;;;;12.57;6.55;;;;;;;19.74;46.50;101852.25;5050237;28;20053;-70
2022/06/04 07:26:52;;;;;;;24.63;8.20;;;;;;;19.81;46.51;101852.53;5050480;28;20048;-70
2022/06/04 07:29:19;;;;;;;13.13;6.32;;;;;;;19.87;46.63;101841.03;5050330;28;20409;-69
2022/06/04 07:31:47;;;;;;;22.88;7.07;;;;;;;19.94;46.65;101842.16;5045169;28;20041;-69
2022/06/04 07:34:13;;;;;;;9.20;6.32;;;;;;;20.00;46.31;101853.34;5043072;28;20402;-70
2022/06/04 07:36:44;;;;;;;18.15;6.60;;;;;;;20.07;46.50;101856.38;5048798;28;20033;-70
2022/06/04 07:39:14;;;;;;;16.30;6.95;;;;;;;20.13;46.18;101868.59;5038555;28;20045;-71
2022/06/04 07:41:44;;;;;;;16.52;6.82;;;;;;;20.17;45.90;101875.47;5089940;28;20041;-71
2022/06/04 07:44:13;;;;;;;15.13;6.50;;;;;;;20.23;46.09;101877.59;5066774;28;20392;-70
2022/06/04 07:46:42;;;;;;;19.42;7.65;;;;;;;20.27;46.23;101874.44;5065525;28;20044;-70
2022/06/04 07:49:10;;;;;;;23.00;7.18;;;;;;;20.32;45.67;101879.44;5049811;28;20033;-70
2022/06/04 07:51:38;;;;;;;14.35;6.65;;;;;;;20.38;46.05;101867.09;5049445;28;20455;-69
2022/06/04 07:54:07;;;;;;;26.88;7.78;;;;;;;20.43;46.07;101867.53;5050638;28;20490;-71
2022/06/04 07:56:34;;;;;;;19.15;7.05;;;;;;;20.49;45.69;101866.94;5044338;28;20063;-71
2022/06/04 07:59:00;;;;;;;12.73;7.32;;;;;;;20.55;45.44;101869.06;5049522;28;20030;-69
2022/06/04 08:01:28;;;;;;;37.47;9.35;;;;;;;20.58;45.65;101875.09;5048253;28;20056;-70
2022/06/04 08:03:55;;;;;;;40.50;8.82;;;;;;;20.62;45.67;101884.69;5049304;28;20036;-71
2022/06/04 08:06:23;;;;;;;16.85;6.72;;;;;;;20.67;45.30;101892.44;5053588;28;20041;-70
2022/06/04 08:08:54;;;;;;;14.70;6.85;;;;;;;20.72;45.54;101878.34;5048656;28;20359;-70
2022/06/04 08:11:35;;;;;;;10.43;6.20;;;;;;;20.75;45.18;101872.59;5049834;28;20121;-70
2022/06/04 08:14:13;;;;;;;12.68;6.60;;;;;;;20.76;45.03;101868.84;5031302;28;20050;-71
2022/06/04 08:16:47;;;;;;;7.93;6.18;;;;;;;20.80;45.20;101867.53;5042484;28;20038;-71
2022/06/04 08:19:16;;;;;;;12.00;6.90;;;;;;;20.84;45.42;101872.56;5036356;28;20049;-69
2022/06/04 08:21:42;;;;;;;9.88;6.35;;;;;;;20.89;44.99;101877.59;5041391;28;20041;-70
2022/06/04 08:24:11;;;;;;;9.15;6.72;;;;;;;20.92;45.17;101878.13;5043384;28;20058;-69
2022/06/04 08:26:40;;;;;;;10.20;6.15;;;;;;;20.97;44.86;101879.56;5032906;28;20049;-69
2022/06/04 08:29:07;;;;;;;8.65;6.18;;;;;;;21.01;45.00;101868.19;5032813;28;20487;-70
2022/06/04 08:31:34;;;;;;;7.93;6.45;;;;;;;21.06;45.20;101875.91;5034051;28;20080;-72
2022/06/04 08:34:01;;;;;;;8.65;6.53;;;;;;;21.12;44.68;101862.50;5030152;28;20049;-73
2022/06/04 08:36:28;;;;;;;9.38;6.72;;;;;;;21.19;44.89;101862.75;5028330;28;20048;-72
2022/06/04 08:38:55;;;;;;;18.50;7.20;;;;;;;21.27;45.02;101871.06;5039661;28;20136;-71
2022/06/04 08:41:40;;;;;;;16.55;7.32;;;;;;;21.34;44.65;101869.44;5030201;28;20044;-70
2022/06/04 08:44:13;;;;;;;8.70;6.47;;;;;;;21.39;44.40;101864.38;5021858;28;20135;-68
2022/06/04 08:46:50;;;;;;;22.65;7.43;;;;;;;21.46;44.95;101862.75;5028564;28;20033;-66
2022/06/04 08:49:31;;;;;;;20.42;7.13;;;;;;;21.54;44.71;101856.50;5022558;28;20045;-65
2022/06/04 08:52:00;;;;;;;11.15;6.75;;;;;;;21.64;44.58;101862.78;5031202;28;20073;-66
2022/06/04 08:57:35;;;;;;;10.32;6.43;;;;;;;21.79;44.26;101854.88;5035153;28;20046;-65
2022/06/04 09:00:09;;;;;;;12.32;6.05;;;;;;;21.90;44.00;101868.31;5035114;28;20500;-66
2022/06/04 09:02:51;;;;;;;11.25;6.55;;;;;;;21.97;44.06;101860.31;5031253;28;20080;-65
2022/06/04 09:05:49;;;;;;;8.05;6.78;;;;;;;22.02;44.37;101858.81;5033569;28;20041;-63
2022/06/04 09:08:27;;;;;;;10.60;5.93;;;;;;;22.15;44.14;101858.44;5023993;28;20045;-66
2022/06/04 09:10:58;;;;;;;10.77;6.88;;;;;;;22.28;43.63;101872.56;5030627;28;20045;-67
2022/06/04 09:13:33;;;;;;;9.57;6.72;;;;;;;22.38;43.62;101867.88;5028884;28;20059;-65
2022/06/04 09:16:14;;;;;;;9.77;6.75;;;;;;;22.45;43.34;101877.16;5031068;28;20457;-66
2022/06/04 09:18:43;;;;;;;9.02;6.65;;;;;;;22.52;43.19;101883.69;5020325;28;20045;-66
2022/06/04 09:21:11;;;;;;;8.27;6.47;;;;;;;22.62;43.09;101894.53;5028592;28;20042;-65
2022/06/04 09:23:47;;;;;;;9.40;5.85;;;;;;;22.71;43.12;101888.09;5030228;28;20064;-67
2022/06/04 09:26:21;;;;;;;8.52;6.53;;;;;;;22.85;42.93;101892.13;5034205;28;20046;-64
2022/06/04 09:29:09;;;;;;;11.02;6.80;;;;;;;22.98;43.16;101889.78;5032939;28;20447;-66
2022/06/04 09:31:41;;;;;;;8.15;6.78;;;;;;;23.18;43.25;101884.94;5032765;28;20505;-69
2022/06/04 09:34:19;;;;;;;87.35;56.08;;;;;;;23.38;42.71;101882.75;5064058;28;20041;-68
2022/06/04 09:36:47;;;;;;;24.08;16.70;;;;;;;23.60;42.79;101865.69;5028202;28;20502;-68
2022/06/04 09:39:22;;;;;;;8.30;7.45;;;;;;;23.84;42.47;101867.63;5032729;28;20038;-68
2022/06/04 09:41:55;;;;;;;42.00;9.98;;;;;;;24.04;42.38;101869.00;5016784;28;20481;-68
2022/06/04 09:44:23;;;;;;;50.85;9.80;;;;;;;24.25;41.70;101868.47;5020299;28;20394;-67
2022/06/04 09:47:27;;;;;;;53.10;10.52;;;;;;;24.38;41.75;101870.69;5028960;28;20038;-67
2022/06/04 09:50:00;;;;;;;9.65;6.32;;;;;;;24.52;41.52;101877.38;5026258;28;20055;-67
2022/06/04 09:52:27;;;;;;;33.25;8.05;;;;;;;24.60;41.03;101882.88;5033820;28;20050;-67
2022/06/04 09:54:58;;;;;;;13.65;6.90;;;;;;;24.64;40.91;101882.34;5034582;28;20055;-67
2022/06/04 09:57:33;;;;;;;11.55;6.25;;;;;;;24.71;40.51;101877.84;5033999;28;20487;-66
2022/06/04 10:00:00;;;;;;;8.70;6.20;;;;;;;24.82;40.76;101878.50;5032912;28;20049;-67
2022/06/04 10:02:28;;;;;;;11.32;6.90;;;;;;;24.88;40.27;101866.81;5032433;28;20133;-66
2022/06/04 10:05:02;;;;;;;21.33;7.90;;;;;;;24.94;40.56;101868.84;5034400;28;20045;-64
2022/06/04 10:07:34;;;;;;;9.82;6.95;;;;;;;25.00;40.42;101876.41;5033988;28;20394;-66
2022/06/04 10:10:23;;;;;;;8.55;6.80;;;;;;;25.06;40.00;101861.09;5026313;28;20041;-65
2022/06/04 10:15:46;;;;;;;12.60;7.65;;;;;;;25.13;39.67;101878.56;5034015;28;20384;-65
2022/06/04 10:18:29;;;;;;;8.88;6.38;;;;;;;25.13;39.40;101871.19;5033735;28;20037;-66
2022/06/04 10:21:03;;;;;;;7.10;6.40;;;;;;;25.16;39.53;101887.31;5034041;28;20041;-64
2022/06/04 10:23:40;;;;;;;9.90;6.32;;;;;;;25.24;39.89;101886.41;5033618;28;20483;-65
2022/06/04 10:26:39;;;;;;;8.70;6.70;;;;;;;25.31;39.51;101891.06;5033736;28;20037;-66
2022/06/04 10:29:33;;;;;;;11.00;6.70;;;;;;;25.38;39.25;101879.34;5037651;28;20041;-66
2022/06/04 10:32:25;;;;;;;10.40;6.28;;;;;;;25.43;39.31;101880.50;5022397;28;20045;-64
2022/06/04 10:35:18;;;;;;;7.95;6.55;;;;;;;25.48;39.17;101878.06;5033732;28;20056;-65
2022/06/04 10:38:03;;;;;;;7.95;7.15;;;;;;;25.48;38.95;101874.47;5033291;28;20041;-65
2022/06/04 10:41:02;;;;;;;9.65;6.82;;;;;;;25.49;39.20;101882.53;5022039;28;20064;-65
2022/06/04 10:43:48;;;;;;;8.40;6.63;;;;;;;25.58;39.16;101880.56;5040166;28;20080;-65
2022/06/04 10:46:25;;;;;;;11.57;6.55;;;;;;;25.70;38.92;101883.78;5039690;28;20050;-65
2022/06/04 10:49:10;;;;;;;7.13;6.32;;;;;;;25.82;39.07;101880.44;5025510;28;20191;-64
2022/06/04 10:52:10;;;;;;;7.03;6.17;;;;;;;25.96;38.98;101882.38;5037130;28;20050;-65
2022/06/04 10:54:44;;;;;;;7.80;6.47;;;;;;;26.10;38.87;101878.00;5033519;28;20052;-64
2022/06/04 10:57:26;;;;;;;8.10;6.22;;;;;;;26.18;38.51;101883.41;5033048;28;20037;-64
2022/06/04 11:00:13;;;;;;;6.57;5.63;;;;;;;26.28;38.40;101888.66;5033274;28;20048;-65
2022/06/04 11:02:47;;;;;;;12.55;7.43;;;;;;;26.43;38.32;101892.31;5033025;28;20041;-64
2022/06/04 11:05:25;;;;;;;9.45;7.03;;;;;;;26.51;37.90;101883.13;5032986;28;20484;-64
2022/06/04 11:07:57;;;;;;;12.48;7.05;;;;;;;26.59;37.84;101878.38;5034294;28;20108;-64
2022/06/04 11:10:31;;;;;;;12.80;7.68;;;;;;;26.66;37.61;101885.88;5030779;28;20144;-65
2022/06/04 11:13:26;;;;;;;10.17;6.27;;;;;;;26.68;37.29;101886.56;5036712;28;20045;-65
2022/06/04 11:16:01;;;;;;;8.68;6.10;;;;;;;26.73;37.62;101882.19;5032062;28;20830;-64
2022/06/04 11:18:41;;;;;;;6.47;5.55;;;;;;;26.80;37.40;101882.31;5064994;28;20091;-64
2022/06/04 11:21:15;;;;;;;9.40;7.13;;;;;;;26.88;37.37;101885.81;5034163;28;20034;-65
2022/06/04 11:24:11;;;;;;;10.13;6.90;;;;;;;26.98;36.99;101882.81;5032490;28;20128;-65
2022/06/04 11:26:40;;;;;;;7.68;5.93;;;;;;;27.09;36.82;101884.22;5033018;28;20053;-64
2022/06/04 11:29:09;;;;;;;9.40;5.65;;;;;;;27.17;37.05;101882.19;5032689;28;20052;-65
2022/06/04 11:31:57;;;;;;;9.52;6.57;;;;;;;27.33;36.83;101878.38;5045246;28;20044;-64
2022/06/04 11:34:56;;;;;;;9.80;6.95;;;;;;;27.52;36.65;101882.44;5032590;28;20513;-65
2022/06/04 11:37:37;;;;;;;8.68;7.22;;;;;;;27.62;36.29;101888.53;5032882;28;20132;-64
2022/06/04 11:40:41;;;;;;;7.40;5.97;;;;;;;27.71;35.94;101884.56;5045557;28;20046;-64
2022/06/04 11:43:28;;;;;;;6.60;5.85;;;;;;;27.82;35.86;101886.81;5043723;28;20045;-65
2022/06/04 11:46:16;;;;;;;8.07;5.88;;;;;;;27.84;35.34;101887.47;5023979;28;20069;-64
2022/06/04 11:48:52;;;;;;;6.90;5.60;;;;;;;27.87;35.51;101890.88;5031315;28;20038;-64
2022/06/04 11:51:27;;;;;;;9.25;6.10;;;;;;;27.84;35.51;101883.84;5032802;28;20041;-64
2022/06/04 11:54:11;;;;;;;7.68;5.32;;;;;;;27.81;35.29;101879.59;5032415;28;20046;-65
2022/06/04 11:56:54;;;;;;;9.68;6.47;;;;;;;27.84;35.29;101881.94;5027918;28;20414;-65
2022/06/04 11:59:46;;;;;;;10.45;6.07;;;;;;;27.90;35.15;101872.03;5033083;28;20037;-65
2022/06/04 12:02:20;;;;;;;6.22;5.60;;;;;;;27.97;35.18;101869.31;5044617;28;20077;-65
2022/06/04 12:05:17;;;;;;;6.78;6.10;;;;;;;28.01;34.96;101877.00;5036571;28;20052;-66